createdAt,value
2019-02-12T00:00:09.707Z,1027.3
2019-02-12T00:00:50.341Z,1027.28
2019-02-12T00:01:31.012Z,1027.33
2019-02-12T00:02:11.607Z,1027.32
2019-02-12T00:02:52.228Z,1027.35
2019-02-12T00:03:32.820Z,1027.36
2019-02-12T00:04:13.470Z,1027.38
2019-02-12T00:04:54.116Z,1027.34
2019-02-12T00:05:34.708Z,1027.39
2019-02-12T00:06:15.420Z,1027.37
2019-02-12T00:06:56.028Z,1027.38
2019-02-12T00:07:36.638Z,1027.35
2019-02-12T00:08:17.284Z,1027.37
2019-02-12T00:08:57.972Z,1027.34
2019-02-12T00:09:38.606Z,1027.32
2019-02-12T00:10:19.198Z,1027.32
2019-02-12T00:10:59.822Z,1027.31
2019-02-12T00:11:40.429Z,1027.29
2019-02-12T00:12:21.022Z,1027.29
2019-02-12T00:13:01.620Z,1027.31
2019-02-12T00:13:42.253Z,1027.29
2019-02-12T00:14:22.905Z,1027.29
2019-02-12T00:15:03.524Z,1027.27
2019-02-12T00:15:44.128Z,1027.32
2019-02-12T00:16:24.736Z,1027.35
2019-02-12T00:17:05.321Z,1027.34
2019-02-12T00:17:45.912Z,1027.36
2019-02-12T00:18:26.520Z,1027.39
2019-02-12T00:19:07.125Z,1027.38
2019-02-12T00:19:47.750Z,1027.41
2019-02-12T00:20:28.342Z,1027.4
2019-02-12T00:21:09.503Z,1027.41
2019-02-12T00:21:49.562Z,1027.43
2019-02-12T00:22:30.172Z,1027.46
2019-02-12T00:23:10.784Z,1027.48
2019-02-12T00:23:51.390Z,1027.49
2019-02-12T00:24:31.988Z,1027.47
2019-02-12T00:25:12.578Z,1027.47
2019-02-12T00:25:53.190Z,1027.4
2019-02-12T00:26:33.802Z,1027.42
2019-02-12T00:27:14.408Z,1027.42
2019-02-12T00:27:55.018Z,1027.39
2019-02-12T00:28:35.597Z,1027.37
2019-02-12T00:29:16.190Z,1027.39
2019-02-12T00:29:56.771Z,1027.38
2019-02-12T00:30:37.394Z,1027.41
2019-02-12T00:31:17.988Z,1027.39
2019-02-12T00:31:58.585Z,1027.38
2019-02-12T00:32:39.186Z,1027.36
2019-02-12T00:33:19.785Z,1027.34
2019-02-12T00:34:00.398Z,1027.32
2019-02-12T00:34:40.994Z,1027.31
2019-02-12T00:35:21.634Z,1027.33
2019-02-12T00:36:02.236Z,1027.27
2019-02-12T00:36:42.828Z,1027.28
2019-02-12T00:37:23.424Z,1027.32
2019-02-12T00:38:04.008Z,1027.3
2019-02-12T00:38:44.598Z,1027.31
2019-02-12T00:39:25.203Z,1027.33
2019-02-12T00:40:05.807Z,1027.36
2019-02-12T00:40:46.412Z,1027.35
2019-02-12T00:41:27.106Z,1027.37
2019-02-12T00:42:07.698Z,1027.36
2019-02-12T00:42:48.308Z,1027.38
2019-02-12T00:43:28.906Z,1027.37
2019-02-12T00:44:09.527Z,1027.4
2019-02-12T00:44:50.117Z,1027.41
2019-02-12T00:45:30.712Z,1027.41
2019-02-12T00:46:11.304Z,1027.42
2019-02-12T00:46:51.928Z,1027.42
2019-02-12T00:47:32.548Z,1027.43
2019-02-12T00:48:13.129Z,1027.43
2019-02-12T00:48:53.756Z,1027.45
2019-02-12T00:49:34.348Z,1027.47
2019-02-12T00:50:14.930Z,1027.43
2019-02-12T00:50:55.516Z,1027.44
2019-02-12T00:51:36.120Z,1027.43
2019-02-12T00:52:16.708Z,1027.46
2019-02-12T00:52:57.290Z,1027.47
2019-02-12T00:53:37.881Z,1027.48
2019-02-12T00:54:18.492Z,1027.47
2019-02-12T00:54:59.094Z,1027.47
2019-02-12T00:55:39.736Z,1027.47
2019-02-12T00:56:20.329Z,1027.5
2019-02-12T00:57:00.914Z,1027.48
2019-02-12T00:57:41.506Z,1027.5
2019-02-12T00:58:22.095Z,1027.43
2019-02-12T00:59:02.709Z,1027.44
2019-02-12T00:59:43.300Z,1027.46
2019-02-12T01:00:23.886Z,1027.45
2019-02-12T01:01:04.474Z,1027.44
2019-02-12T01:01:45.075Z,1027.44
2019-02-12T01:02:25.710Z,1027.46
2019-02-12T01:03:06.318Z,1027.43
2019-02-12T01:03:46.942Z,1027.44
2019-02-12T01:04:27.530Z,1027.5
2019-02-12T01:05:08.124Z,1027.5
2019-02-12T01:05:48.724Z,1027.52
2019-02-12T01:06:29.323Z,1027.52
2019-02-12T01:07:09.931Z,1027.52
2019-02-12T01:07:50.536Z,1027.52
2019-02-12T01:08:31.128Z,1027.54
2019-02-12T01:09:11.730Z,1027.52
2019-02-12T01:09:52.366Z,1027.48
2019-02-12T01:10:32.990Z,1027.53
2019-02-12T01:11:13.601Z,1027.5
2019-02-12T01:11:54.177Z,1027.5
2019-02-12T01:12:34.817Z,1027.49
2019-02-12T01:13:15.452Z,1027.52
2019-02-12T01:13:56.045Z,1027.5
2019-02-12T01:14:36.638Z,1027.5
2019-02-12T01:15:17.240Z,1027.52
2019-02-12T01:15:57.902Z,1027.55
2019-02-12T01:16:38.486Z,1027.55
2019-02-12T01:17:19.100Z,1027.54
2019-02-12T01:17:59.678Z,1027.58
2019-02-12T01:18:40.270Z,1027.51
2019-02-12T01:19:20.856Z,1027.5
2019-02-12T01:20:01.467Z,1027.52
2019-02-12T01:20:42.050Z,1027.52
2019-02-12T01:21:26.142Z,1027.5
2019-02-12T01:22:03.220Z,1027.54
2019-02-12T01:22:43.802Z,1027.51
2019-02-12T01:23:24.388Z,1027.54
2019-02-12T01:24:04.989Z,1027.55
2019-02-12T01:24:45.596Z,1027.52
2019-02-12T01:25:26.206Z,1027.52
2019-02-12T01:26:06.808Z,1027.5
2019-02-12T01:26:47.402Z,1027.54
2019-02-12T01:27:27.984Z,1027.48
2019-02-12T01:28:08.581Z,1027.45
2019-02-12T01:28:49.168Z,1027.47
2019-02-12T01:29:29.796Z,1027.47
2019-02-12T01:30:10.404Z,1027.46
2019-02-12T01:30:51.011Z,1027.47
2019-02-12T01:31:31.653Z,1027.53
2019-02-12T01:32:12.237Z,1027.5
2019-02-12T01:32:52.822Z,1027.47
2019-02-12T01:33:33.420Z,1027.48
2019-02-12T01:34:14.013Z,1027.47
2019-02-12T01:34:54.622Z,1027.48
2019-02-12T01:35:35.210Z,1027.49
2019-02-12T01:36:15.826Z,1027.53
2019-02-12T01:36:56.408Z,1027.58
2019-02-12T01:37:37.017Z,1027.54
2019-02-12T01:38:17.603Z,1027.57
2019-02-12T01:38:58.187Z,1027.59
2019-02-12T01:39:38.785Z,1027.58
2019-02-12T01:40:19.377Z,1027.59
2019-02-12T01:40:59.976Z,1027.57
2019-02-12T01:41:40.575Z,1027.59
2019-02-12T01:42:21.189Z,1027.57
2019-02-12T01:43:01.787Z,1027.54
2019-02-12T01:43:42.391Z,1027.56
2019-02-12T01:44:22.989Z,1027.52
2019-02-12T01:45:03.664Z,1027.57
2019-02-12T01:45:44.311Z,1027.5
2019-02-12T01:46:24.981Z,1027.51
2019-02-12T01:47:05.602Z,1027.52
2019-02-12T01:47:46.271Z,1027.53
2019-02-12T01:48:26.812Z,1027.57
2019-02-12T01:49:07.436Z,1027.59
2019-02-12T01:49:48.048Z,1027.63
2019-02-12T01:50:28.667Z,1027.63
2019-02-12T01:51:09.309Z,1027.62
2019-02-12T01:51:49.924Z,1027.62
2019-02-12T01:52:30.541Z,1027.62
2019-02-12T01:53:11.152Z,1027.62
2019-02-12T01:53:51.796Z,1027.66
2019-02-12T01:54:32.347Z,1027.64
2019-02-12T01:55:13.037Z,1027.62
2019-02-12T01:55:53.701Z,1027.65
2019-02-12T01:56:34.317Z,1027.62
2019-02-12T01:57:14.910Z,1027.64
2019-02-12T01:57:56.230Z,1027.62
2019-02-12T01:58:36.888Z,1027.64
2019-02-12T01:59:17.506Z,1027.62
2019-02-12T01:59:58.105Z,1027.61
2019-02-12T02:00:38.781Z,1027.6
2019-02-12T02:01:19.319Z,1027.63
2019-02-12T02:01:59.913Z,1027.6
2019-02-12T02:02:40.505Z,1027.58
2019-02-12T02:03:21.117Z,1027.56
2019-02-12T02:04:01.764Z,1027.59
2019-02-12T02:04:42.354Z,1027.57
2019-02-12T02:05:22.990Z,1027.58
2019-02-12T02:06:03.573Z,1027.56
2019-02-12T02:06:44.254Z,1027.57
2019-02-12T02:07:25.013Z,1027.52
2019-02-12T02:08:05.652Z,1027.55
2019-02-12T02:08:46.273Z,1027.56
2019-02-12T02:09:26.933Z,1027.55
2019-02-12T02:10:07.604Z,1027.58
2019-02-12T02:10:48.198Z,1027.56
2019-02-12T02:11:28.819Z,1027.59
2019-02-12T02:12:09.407Z,1027.56
2019-02-12T02:12:50.045Z,1027.56
2019-02-12T02:13:30.631Z,1027.57
2019-02-12T02:14:11.277Z,1027.57
2019-02-12T02:14:51.895Z,1027.57
2019-02-12T02:15:32.501Z,1027.56
2019-02-12T02:16:13.096Z,1027.55
2019-02-12T02:16:53.698Z,1027.58
2019-02-12T02:17:34.316Z,1027.59
2019-02-12T02:18:14.913Z,1027.62
2019-02-12T02:18:55.531Z,1027.63
2019-02-12T02:19:36.159Z,1027.68
2019-02-12T02:20:16.793Z,1027.62
2019-02-12T02:20:57.432Z,1027.63
2019-02-12T02:21:43.856Z,1027.65
2019-02-12T02:22:18.868Z,1027.64
2019-02-12T02:22:59.324Z,1027.63
2019-02-12T02:23:39.944Z,1027.59
2019-02-12T02:24:20.556Z,1027.57
2019-02-12T02:25:01.151Z,1027.58
2019-02-12T02:25:41.859Z,1027.54
2019-02-12T02:26:22.559Z,1027.51
2019-02-12T02:27:03.235Z,1027.54
2019-02-12T02:27:43.786Z,1027.51
2019-02-12T02:28:24.591Z,1027.53
2019-02-12T02:29:05.192Z,1027.56
2019-02-12T02:29:45.833Z,1027.6
2019-02-12T02:30:26.444Z,1027.59
2019-02-12T02:31:07.039Z,1027.62
2019-02-12T02:31:47.802Z,1027.59
2019-02-12T02:32:28.417Z,1027.56
2019-02-12T02:33:09.055Z,1027.55
2019-02-12T02:33:49.729Z,1027.57
2019-02-12T02:34:30.407Z,1027.59
2019-02-12T02:35:11.014Z,1027.55
2019-02-12T02:35:51.673Z,1027.56
2019-02-12T02:36:32.287Z,1027.58
2019-02-12T02:37:12.897Z,1027.53
2019-02-12T02:37:53.519Z,1027.55
2019-02-12T02:38:34.188Z,1027.59
2019-02-12T02:39:14.858Z,1027.56
2019-02-12T02:39:55.465Z,1027.57
2019-02-12T02:40:36.070Z,1027.57
2019-02-12T02:41:16.688Z,1027.6
2019-02-12T02:41:57.330Z,1027.55
2019-02-12T02:42:37.940Z,1027.58
2019-02-12T02:43:18.551Z,1027.57
2019-02-12T02:43:59.144Z,1027.58
2019-02-12T02:44:39.735Z,1027.54
2019-02-12T02:45:20.318Z,1027.55
2019-02-12T02:46:00.905Z,1027.57
2019-02-12T02:46:41.509Z,1027.5
2019-02-12T02:47:22.100Z,1027.51
2019-02-12T02:48:02.705Z,1027.49
2019-02-12T02:48:43.312Z,1027.5
2019-02-12T02:49:23.907Z,1027.47
2019-02-12T02:50:04.494Z,1027.46
2019-02-12T02:50:45.079Z,1027.44
2019-02-12T02:51:25.691Z,1027.43
2019-02-12T02:52:06.293Z,1027.44
2019-02-12T02:52:46.889Z,1027.42
2019-02-12T02:53:27.531Z,1027.43
2019-02-12T02:54:08.129Z,1027.45
2019-02-12T02:54:48.727Z,1027.46
2019-02-12T02:55:29.336Z,1027.44
2019-02-12T02:56:09.928Z,1027.46
2019-02-12T02:56:50.525Z,1027.42
2019-02-12T02:57:31.233Z,1027.43
2019-02-12T02:58:11.850Z,1027.45
2019-02-12T02:58:52.439Z,1027.42
2019-02-12T02:59:33.039Z,1027.39
2019-02-12T03:00:13.634Z,1027.4
2019-02-12T03:00:54.244Z,1027.42
2019-02-12T03:01:34.859Z,1027.38
2019-02-12T03:02:15.462Z,1027.4
2019-02-12T03:02:56.063Z,1027.39
2019-02-12T03:03:36.654Z,1027.34
2019-02-12T03:04:17.267Z,1027.34
2019-02-12T03:04:57.890Z,1027.35
2019-02-12T03:05:38.498Z,1027.37
2019-02-12T03:06:19.101Z,1027.37
2019-02-12T03:06:59.706Z,1027.34
2019-02-12T03:07:40.308Z,1027.38
2019-02-12T03:08:20.931Z,1027.34
2019-02-12T03:09:01.511Z,1027.36
2019-02-12T03:09:42.123Z,1027.32
2019-02-12T03:10:22.713Z,1027.33
2019-02-12T03:11:03.337Z,1027.33
2019-02-12T03:11:43.929Z,1027.32
2019-02-12T03:12:24.504Z,1027.3
2019-02-12T03:13:05.110Z,1027.3
2019-02-12T03:13:45.723Z,1027.3
2019-02-12T03:14:26.321Z,1027.29
2019-02-12T03:15:06.897Z,1027.28
2019-02-12T03:15:47.487Z,1027.29
2019-02-12T03:16:28.073Z,1027.28
2019-02-12T03:17:08.693Z,1027.25
2019-02-12T03:17:49.312Z,1027.26
2019-02-12T03:18:29.922Z,1027.25
2019-02-12T03:19:10.498Z,1027.22
2019-02-12T03:19:51.099Z,1027.19
2019-02-12T03:20:31.695Z,1027.2
2019-02-12T03:21:12.301Z,1027.23
2019-02-12T03:21:52.879Z,1027.3
2019-02-12T03:22:33.472Z,1027.26
2019-02-12T03:23:14.077Z,1027.33
2019-02-12T03:23:54.667Z,1027.35
2019-02-12T03:24:35.253Z,1027.41
2019-02-12T03:25:15.857Z,1027.4
2019-02-12T03:25:56.457Z,1027.37
2019-02-12T03:26:37.060Z,1027.4
2019-02-12T03:27:17.657Z,1027.38
2019-02-12T03:27:58.253Z,1027.35
2019-02-12T03:28:38.867Z,1027.36
2019-02-12T03:29:19.478Z,1027.39
2019-02-12T03:30:00.063Z,1027.36
2019-02-12T03:30:40.655Z,1027.34
2019-02-12T03:31:21.254Z,1027.28
2019-02-12T03:32:01.861Z,1027.29
2019-02-12T03:32:42.471Z,1027.27
2019-02-12T03:33:23.168Z,1027.27
2019-02-12T03:34:03.698Z,1027.24
2019-02-12T03:34:44.267Z,1027.27
2019-02-12T03:35:24.879Z,1027.28
2019-02-12T03:36:05.483Z,1027.26
2019-02-12T03:36:46.077Z,1027.26
2019-02-12T03:37:26.667Z,1027.23
2019-02-12T03:38:07.371Z,1027.28
2019-02-12T03:38:47.898Z,1027.27
2019-02-12T03:39:28.519Z,1027.27
2019-02-12T03:40:09.129Z,1027.25
2019-02-12T03:40:49.731Z,1027.31
2019-02-12T03:41:30.367Z,1027.22
2019-02-12T03:42:10.954Z,1027.22
2019-02-12T03:42:51.557Z,1027.19
2019-02-12T03:43:32.155Z,1027.19
2019-02-12T03:44:12.745Z,1027.2
2019-02-12T03:44:53.345Z,1027.18
2019-02-12T03:45:33.942Z,1027.18
2019-02-12T03:46:14.547Z,1027.18
2019-02-12T03:46:55.142Z,1027.19
2019-02-12T03:47:35.766Z,1027.18
2019-02-12T03:48:16.353Z,1027.17
2019-02-12T03:48:56.973Z,1027.22
2019-02-12T03:49:37.569Z,1027.22
2019-02-12T03:50:18.168Z,1027.18
2019-02-12T03:50:58.755Z,1027.17
2019-02-12T03:51:39.393Z,1027.19
2019-02-12T03:52:19.982Z,1027.18
2019-02-12T03:53:00.620Z,1027.19
2019-02-12T03:53:41.203Z,1027.17
2019-02-12T03:54:21.815Z,1027.17
2019-02-12T03:55:02.409Z,1027.16
2019-02-12T03:55:43.005Z,1027.13
2019-02-12T03:56:23.598Z,1027.12
2019-02-12T03:57:04.193Z,1027.11
2019-02-12T03:57:44.803Z,1027.12
2019-02-12T03:58:25.411Z,1027.15
2019-02-12T03:59:06.011Z,1027.14
2019-02-12T03:59:46.597Z,1027.14
2019-02-12T04:00:27.203Z,1027.13
2019-02-12T04:01:07.827Z,1027.17
2019-02-12T04:01:48.433Z,1027.13
2019-02-12T04:02:29.032Z,1027.14
2019-02-12T04:03:09.621Z,1027.15
2019-02-12T04:03:50.233Z,1027.14
2019-02-12T04:04:30.893Z,1027.11
2019-02-12T04:05:11.483Z,1027.14
2019-02-12T04:05:52.102Z,1027.14
2019-02-12T04:06:32.685Z,1027.15
2019-02-12T04:07:13.393Z,1027.18
2019-02-12T04:07:53.935Z,1027.19
2019-02-12T04:08:34.523Z,1027.18
2019-02-12T04:09:15.130Z,1027.19
2019-02-12T04:09:55.737Z,1027.17
2019-02-12T04:10:36.404Z,1027.15
2019-02-12T04:11:16.939Z,1027.12
2019-02-12T04:11:57.541Z,1027.12
2019-02-12T04:12:38.151Z,1027.13
2019-02-12T04:13:18.749Z,1027.11
2019-02-12T04:13:59.358Z,1027.11
2019-02-12T04:14:39.947Z,1027.15
2019-02-12T04:15:20.550Z,1027.14
2019-02-12T04:16:01.174Z,1027.13
2019-02-12T04:16:41.755Z,1027.15
2019-02-12T04:17:22.363Z,1027.24
2019-02-12T04:18:02.980Z,1027.23
2019-02-12T04:18:43.571Z,1027.25
2019-02-12T04:19:24.162Z,1027.29
2019-02-12T04:20:04.805Z,1027.25
2019-02-12T04:20:45.418Z,1027.27
2019-02-12T04:21:26.018Z,1027.22
2019-02-12T04:22:06.590Z,1027.23
2019-02-12T04:22:47.179Z,1027.21
2019-02-12T04:23:27.771Z,1027.18
2019-02-12T04:24:08.393Z,1027.23
2019-02-12T04:24:48.991Z,1027.24
2019-02-12T04:25:29.608Z,1027.28
2019-02-12T04:26:10.211Z,1027.26
2019-02-12T04:26:50.805Z,1027.33
2019-02-12T04:27:31.413Z,1027.37
2019-02-12T04:28:12.002Z,1027.41
2019-02-12T04:28:52.614Z,1027.44
2019-02-12T04:29:33.205Z,1027.47
2019-02-12T04:31:33.465Z,1027.5
2019-02-12T04:32:14.066Z,1027.51
2019-02-12T04:32:54.655Z,1027.5
2019-02-12T04:33:35.235Z,1027.46
2019-02-12T04:34:15.829Z,1027.45
2019-02-12T04:34:56.428Z,1027.44
2019-02-12T04:35:37.019Z,1027.48
2019-02-12T04:36:17.619Z,1027.45
2019-02-12T04:36:58.212Z,1027.43
2019-02-12T04:37:38.881Z,1027.44
2019-02-12T04:38:19.474Z,1027.44
2019-02-12T04:39:00.073Z,1027.45
2019-02-12T04:39:40.656Z,1027.42
2019-02-12T04:40:21.246Z,1027.45
2019-02-12T04:41:01.857Z,1027.44
2019-02-12T04:41:42.449Z,1027.47
2019-02-12T04:42:23.062Z,1027.44
2019-02-12T04:43:03.640Z,1027.45
2019-02-12T04:43:44.237Z,1027.47
2019-02-12T04:44:24.845Z,1027.47
2019-02-12T04:45:05.471Z,1027.49
2019-02-12T04:45:46.062Z,1027.49
2019-02-12T04:46:26.649Z,1027.48
2019-02-12T04:47:07.233Z,1027.52
2019-02-12T04:47:47.831Z,1027.5
2019-02-12T04:48:28.439Z,1027.51
2019-02-12T04:49:09.038Z,1027.55
2019-02-12T04:49:49.642Z,1027.54
2019-02-12T04:50:30.243Z,1027.57
2019-02-12T04:51:10.823Z,1027.55
2019-02-12T04:51:51.411Z,1027.53
2019-02-12T04:52:32.320Z,1027.56
2019-02-12T04:53:12.603Z,1027.55
2019-02-12T04:53:53.182Z,1027.49
2019-02-12T04:54:33.783Z,1027.51
2019-02-12T04:55:14.383Z,1027.48
2019-02-12T04:55:54.983Z,1027.5
2019-02-12T04:56:35.577Z,1027.51
2019-02-12T04:57:16.173Z,1027.58
2019-02-12T04:57:56.762Z,1027.6
2019-02-12T04:58:37.351Z,1027.63
2019-02-12T04:59:17.956Z,1027.66
2019-02-12T04:59:58.575Z,1027.7
2019-02-12T05:00:39.187Z,1027.69
2019-02-12T05:01:19.786Z,1027.73
2019-02-12T05:02:00.387Z,1027.75
2019-02-12T05:02:40.987Z,1027.74
2019-02-12T05:03:21.569Z,1027.73
2019-02-12T05:04:02.167Z,1027.78
2019-02-12T05:04:42.776Z,1027.74
2019-02-12T05:05:23.377Z,1027.8
2019-02-12T05:06:04.023Z,1027.74
2019-02-12T05:06:44.606Z,1027.84
2019-02-12T05:07:25.198Z,1027.83
2019-02-12T05:08:05.787Z,1027.85
2019-02-12T05:08:46.387Z,1027.86
2019-02-12T05:09:27.030Z,1027.86
2019-02-12T05:10:07.565Z,1027.84
2019-02-12T05:10:48.155Z,1027.85
2019-02-12T05:11:28.762Z,1027.83
2019-02-12T05:12:09.359Z,1027.81
2019-02-12T05:12:49.974Z,1027.82
2019-02-12T05:13:30.575Z,1027.84
2019-02-12T05:14:11.167Z,1027.82
2019-02-12T05:14:51.757Z,1027.87
2019-02-12T05:15:32.343Z,1027.86
2019-02-12T05:16:12.920Z,1027.88
2019-02-12T05:16:53.496Z,1027.85
2019-02-12T05:17:34.094Z,1027.85
2019-02-12T05:18:14.697Z,1027.85
2019-02-12T05:18:55.946Z,1027.82
2019-02-12T05:19:35.911Z,1027.79
2019-02-12T05:20:16.509Z,1027.77
2019-02-12T05:20:57.109Z,1027.8
2019-02-12T05:21:37.705Z,1027.75
2019-02-12T05:22:18.293Z,1027.77
2019-02-12T05:22:58.894Z,1027.75
2019-02-12T05:23:39.494Z,1027.83
2019-02-12T05:24:20.104Z,1027.83
2019-02-12T05:25:00.679Z,1027.85
2019-02-12T05:25:41.277Z,1027.9
2019-02-12T05:26:21.864Z,1027.92
2019-02-12T05:27:02.481Z,1027.91
2019-02-12T05:27:43.092Z,1027.93
2019-02-12T05:28:23.702Z,1027.91
2019-02-12T05:29:04.314Z,1027.91
2019-02-12T05:29:44.895Z,1027.89
2019-02-12T05:30:25.487Z,1027.87
2019-02-12T05:31:06.087Z,1027.88
2019-02-12T05:31:46.685Z,1027.88
2019-02-12T05:32:27.283Z,1027.84
2019-02-12T05:33:07.893Z,1027.86
2019-02-12T05:33:48.527Z,1027.87
2019-02-12T05:34:29.164Z,1027.85
2019-02-12T05:35:09.759Z,1027.92
2019-02-12T05:35:50.349Z,1027.89
2019-02-12T05:36:30.942Z,1027.92
2019-02-12T05:37:11.563Z,1027.96
2019-02-12T05:37:52.155Z,1027.98
2019-02-12T05:38:32.764Z,1028.01
2019-02-12T05:39:13.365Z,1027.98
2019-02-12T05:39:53.963Z,1027.98
2019-02-12T05:40:34.553Z,1028.01
2019-02-12T05:41:15.162Z,1028.02
2019-02-12T05:41:55.737Z,1028.08
2019-02-12T05:42:36.340Z,1028.09
2019-02-12T05:43:16.925Z,1028.08
2019-02-12T05:43:57.509Z,1028.09
2019-02-12T05:44:38.105Z,1028.1
2019-02-12T05:45:18.708Z,1028.09
2019-02-12T05:45:59.293Z,1028.08
2019-02-12T05:46:39.892Z,1028.07
2019-02-12T05:47:20.518Z,1028.1
2019-02-12T05:48:01.084Z,1028.12
2019-02-12T05:48:41.687Z,1028.08
2019-02-12T05:49:22.278Z,1028.12
2019-02-12T05:50:02.899Z,1028.13
2019-02-12T05:50:43.489Z,1028.12
2019-02-12T05:51:24.121Z,1028.13
2019-02-12T05:52:04.723Z,1028.11
2019-02-12T05:52:53.543Z,1028.14
2019-02-12T05:53:25.928Z,1028.14
2019-02-12T05:54:06.531Z,1028.17
2019-02-12T05:54:47.127Z,1028.13
2019-02-12T05:55:27.737Z,1028.15
2019-02-12T05:56:08.344Z,1028.17
2019-02-12T05:56:48.968Z,1028.15
2019-02-12T05:57:29.613Z,1028.2
2019-02-12T05:58:10.227Z,1028.2
2019-02-12T05:58:50.817Z,1028.22
2019-02-12T05:59:31.454Z,1028.22
2019-02-12T06:00:12.058Z,1028.23
2019-02-12T06:00:52.647Z,1028.23
2019-02-12T06:01:33.237Z,1028.19
2019-02-12T06:02:13.837Z,1028.19
2019-02-12T06:02:54.437Z,1028.21
2019-02-12T06:03:35.028Z,1028.18
2019-02-12T06:04:15.629Z,1028.17
2019-02-12T06:04:56.221Z,1028.11
2019-02-12T06:05:36.810Z,1028.14
2019-02-12T06:06:17.438Z,1028.13
2019-02-12T06:06:58.036Z,1028.1
2019-02-12T06:07:38.667Z,1028.12
2019-02-12T06:08:19.306Z,1028.11
2019-02-12T06:08:59.885Z,1028.12
2019-02-12T06:09:40.498Z,1028.11
2019-02-12T06:10:21.115Z,1028.18
2019-02-12T06:11:02.631Z,1028.17
2019-02-12T06:11:43.218Z,1028.18
2019-02-12T06:12:23.834Z,1028.16
2019-02-12T06:13:04.416Z,1028.18
2019-02-12T06:13:45.020Z,1028.18
2019-02-12T06:14:25.619Z,1028.17
2019-02-12T06:15:06.226Z,1028.16
2019-02-12T06:15:46.834Z,1028.19
2019-02-12T06:16:27.441Z,1028.22
2019-02-12T06:17:08.047Z,1028.2
2019-02-12T06:17:48.681Z,1028.25
2019-02-12T06:18:29.275Z,1028.24
2019-02-12T06:19:11.562Z,1028.23
2019-02-12T06:19:50.489Z,1028.26
2019-02-12T06:20:31.089Z,1028.24
2019-02-12T06:21:11.677Z,1028.23
2019-02-12T06:21:52.323Z,1028.23
2019-02-12T06:22:32.926Z,1028.23
2019-02-12T06:23:13.543Z,1028.22
2019-02-12T06:23:54.137Z,1028.25
2019-02-12T06:24:34.749Z,1028.24
2019-02-12T06:25:15.357Z,1028.25
2019-02-12T06:25:55.956Z,1028.24
2019-02-12T06:26:36.564Z,1028.23
2019-02-12T06:27:17.149Z,1028.22
2019-02-12T06:27:57.759Z,1028.21
2019-02-12T06:28:38.348Z,1028.25
2019-02-12T06:29:18.969Z,1028.22
2019-02-12T06:29:59.571Z,1028.2
2019-02-12T06:30:40.167Z,1028.18
2019-02-12T06:31:20.785Z,1028.19
2019-02-12T06:32:01.418Z,1028.21
2019-02-12T06:32:42.021Z,1028.2
2019-02-12T06:33:22.619Z,1028.22
2019-02-12T06:34:03.239Z,1028.25
2019-02-12T06:34:43.826Z,1028.26
2019-02-12T06:35:24.473Z,1028.23
2019-02-12T06:36:05.177Z,1028.28
2019-02-12T06:36:45.807Z,1028.25
2019-02-12T06:37:26.402Z,1028.27
2019-02-12T06:38:07.003Z,1028.28
2019-02-12T06:38:47.589Z,1028.29
2019-02-12T06:39:28.187Z,1028.27
2019-02-12T06:40:08.780Z,1028.29
2019-02-12T06:40:49.373Z,1028.3
2019-02-12T06:41:29.970Z,1028.3
2019-02-12T06:42:10.558Z,1028.34
2019-02-12T06:42:51.177Z,1028.34
2019-02-12T06:43:31.781Z,1028.34
2019-02-12T06:44:12.409Z,1028.36
2019-02-12T06:44:52.999Z,1028.35
2019-02-12T06:45:33.613Z,1028.39
2019-02-12T06:46:14.208Z,1028.4
2019-02-12T06:46:54.805Z,1028.38
2019-02-12T06:47:35.457Z,1028.36
2019-02-12T06:48:16.062Z,1028.39
2019-02-12T06:48:56.675Z,1028.38
2019-02-12T06:49:37.271Z,1028.38
2019-02-12T06:50:17.869Z,1028.37
2019-02-12T06:50:58.453Z,1028.38
2019-02-12T06:51:39.077Z,1028.39
2019-02-12T06:52:19.661Z,1028.41
2019-02-12T06:53:00.249Z,1028.43
2019-02-12T06:53:40.835Z,1028.46
2019-02-12T06:54:21.426Z,1028.42
2019-02-12T06:55:02.042Z,1028.43
2019-02-12T06:55:42.621Z,1028.46
2019-02-12T06:56:23.200Z,1028.42
2019-02-12T06:57:03.799Z,1028.41
2019-02-12T06:57:44.387Z,1028.4
2019-02-12T06:58:24.989Z,1028.4
2019-02-12T06:59:05.596Z,1028.41
2019-02-12T06:59:46.202Z,1028.36
2019-02-12T07:00:26.810Z,1028.42
2019-02-12T07:01:07.375Z,1028.4
2019-02-12T07:01:47.967Z,1028.42
2019-02-12T07:02:28.547Z,1028.45
2019-02-12T07:03:09.137Z,1028.46
2019-02-12T07:03:49.715Z,1028.4
2019-02-12T07:04:30.299Z,1028.4
2019-02-12T07:05:10.896Z,1028.44
2019-02-12T07:05:51.495Z,1028.41
2019-02-12T07:06:32.097Z,1028.46
2019-02-12T07:07:12.699Z,1028.48
2019-02-12T07:07:53.295Z,1028.47
2019-02-12T07:08:33.880Z,1028.47
2019-02-12T07:09:14.472Z,1028.45
2019-02-12T07:09:55.073Z,1028.51
2019-02-12T07:10:35.668Z,1028.46
2019-02-12T07:11:16.271Z,1028.47
2019-02-12T07:11:56.864Z,1028.43
2019-02-12T07:12:37.473Z,1028.52
2019-02-12T07:13:18.073Z,1028.51
2019-02-12T07:13:58.717Z,1028.52
2019-02-12T07:14:39.343Z,1028.52
2019-02-12T07:15:19.964Z,1028.5
2019-02-12T07:16:00.568Z,1028.54
2019-02-12T07:16:41.206Z,1028.53
2019-02-12T07:17:21.793Z,1028.54
2019-02-12T07:18:02.393Z,1028.53
2019-02-12T07:18:42.993Z,1028.58
2019-02-12T07:19:23.591Z,1028.56
2019-02-12T07:20:04.201Z,1028.62
2019-02-12T07:20:44.810Z,1028.61
2019-02-12T07:21:25.405Z,1028.62
2019-02-12T07:22:06.013Z,1028.66
2019-02-12T07:22:46.613Z,1028.64
2019-02-12T07:23:27.214Z,1028.67
2019-02-12T07:24:07.817Z,1028.69
2019-02-12T07:24:48.408Z,1028.61
2019-02-12T07:25:29.039Z,1028.63
2019-02-12T07:26:09.651Z,1028.62
2019-02-12T07:26:50.242Z,1028.61
2019-02-12T07:27:30.829Z,1028.64
2019-02-12T07:28:11.432Z,1028.61
2019-02-12T07:28:52.038Z,1028.66
2019-02-12T07:29:32.637Z,1028.62
2019-02-12T07:30:13.229Z,1028.66
2019-02-12T07:30:53.823Z,1028.65
2019-02-12T07:31:34.774Z,1028.71
2019-02-12T07:32:15.092Z,1028.67
2019-02-12T07:32:55.683Z,1028.7
2019-02-12T07:33:36.306Z,1028.68
2019-02-12T07:34:16.885Z,1028.69
2019-02-12T07:34:57.493Z,1028.74
2019-02-12T07:35:38.137Z,1028.73
2019-02-12T07:36:18.741Z,1028.71
2019-02-12T07:36:59.341Z,1028.68
2019-02-12T07:37:39.983Z,1028.72
2019-02-12T07:38:20.591Z,1028.74
2019-02-12T07:39:01.236Z,1028.74
2019-02-12T07:39:41.883Z,1028.76
2019-02-12T07:40:22.467Z,1028.75
2019-02-12T07:41:03.093Z,1028.81
2019-02-12T07:41:43.691Z,1028.81
2019-02-12T07:42:24.283Z,1028.84
2019-02-12T07:43:04.881Z,1028.81
2019-02-12T07:43:45.480Z,1028.81
2019-02-12T07:44:26.082Z,1028.83
2019-02-12T07:45:06.690Z,1028.85
2019-02-12T07:45:47.285Z,1028.81
2019-02-12T07:46:27.893Z,1028.85
2019-02-12T07:47:08.522Z,1028.84
2019-02-12T07:47:49.098Z,1028.82
2019-02-12T07:48:29.697Z,1028.78
2019-02-12T07:49:10.333Z,1028.74
2019-02-12T07:49:50.921Z,1028.71
2019-02-12T07:50:31.557Z,1028.69
2019-02-12T07:51:12.136Z,1028.71
2019-02-12T07:51:52.727Z,1028.64
2019-02-12T07:52:33.441Z,1028.65
2019-02-12T07:53:13.931Z,1028.64
2019-02-12T07:53:54.526Z,1028.67
2019-02-12T07:54:35.170Z,1028.71
2019-02-12T07:55:15.763Z,1028.72
2019-02-12T07:55:56.335Z,1028.75
2019-02-12T07:56:36.931Z,1028.72
2019-02-12T07:57:17.543Z,1028.78
2019-02-12T07:57:58.135Z,1028.86
2019-02-12T07:58:38.722Z,1028.83
2019-02-12T07:59:19.315Z,1028.84
2019-02-12T07:59:59.905Z,1028.82
2019-02-12T08:00:40.498Z,1028.79
2019-02-12T08:01:21.107Z,1028.79
2019-02-12T08:02:01.727Z,1028.73
2019-02-12T08:02:42.315Z,1028.74
2019-02-12T08:03:22.923Z,1028.74
2019-02-12T08:04:03.524Z,1028.7
2019-02-12T08:04:44.140Z,1028.72
2019-02-12T08:05:24.726Z,1028.73
2019-02-12T08:06:05.338Z,1028.73
2019-02-12T08:06:45.928Z,1028.76
2019-02-12T08:07:26.558Z,1028.82
2019-02-12T08:08:07.171Z,1028.84
2019-02-12T08:08:47.785Z,1028.86
2019-02-12T08:09:28.370Z,1028.9
2019-02-12T08:10:08.965Z,1028.9
2019-02-12T08:10:49.554Z,1028.9
2019-02-12T08:11:30.238Z,1028.9
2019-02-12T08:12:11.092Z,1028.91
2019-02-12T08:12:51.763Z,1028.9
2019-02-12T08:13:32.401Z,1028.91